Latest Weather Observations for Devonport Airport

IDT60801

Issued at 5:32 am EDT Tuesday 21 November 2017 (issued every 30 minutes, with the page automatically refreshed every 10 minutes)

About weather observations | Map of weather stations | Latest weather observations for TAS | Other Formats
Station Details ID: 091126 Name: DEVONPORT AIRPORT Lat: -41.17 Lon: 146.43 Height: 8.0 m
Data from the previous 72 hours. | See also: Recent months at Devonport Airport
Date/Time
EDT
Temp
°C
App
Temp
°C
Dew
Point
°C
Rel
Hum
%
Delta-T
°C
Wind Press
QNH
hPa
Press
MSL
hPa
Rain since
9am
mm
Dir  Spd
km/h
Gust
km/h
Spd
kts
Gust
kts
21/05:30am 13.0 11.6 12.2 95 0.4 SSE 11 11 6 6 1024.4 1024.4 0.0
21/05:00am 13.4 12.4 12.3 93 0.6 SSE 9 11 5 6 1024.2 1024.2 0.0
21/04:30am 13.8 12.5 12.5 92 0.7 S 11 13 6 7 1024.1 1024.1 0.0
21/04:00am 15.0 14.4 13.5 91 0.8 S 9 11 5 6 1024.3 1024.3 0.0
21/03:30am 15.5 15.1 14.2 92 0.7 SSE 9 13 5 7 1024.5 1024.5 0.0
21/03:00am 15.6 15.2 14.1 91 0.8 SE 9 11 5 6 1024.7 1024.7 0.0
21/02:30am 14.9 14.4 13.9 94 0.6 E 9 11 5 6 1024.6 1024.6 0.0
21/02:00am 14.4 14.1 13.3 93 0.6 SE 7 9 4 5 1024.9 1024.9 0.0
21/01:30am 15.7 15.4 14.4 92 0.7 ESE 9 13 5 7 1025.2 1025.2 0.0
21/01:00am 14.9 14.0 13.6 92 0.7 E 11 15 6 8 1025.4 1025.4 0.0
21/12:30am 14.5 13.4 13.0 91 0.8 E 11 13 6 7 1025.6 1025.6 0.0
21/12:00am 14.7 13.6 13.1 90 0.9 E 11 17 6 9 1025.7 1025.7 0.0
 
Date/Time
EDT
Temp
°C
App
Temp
°C
Dew
Point
°C
Rel
Hum
%
Delta-T
°C
Wind Press
QNH
hPa
Press
MSL
hPa
Rain since
9am
mm
Dir  Spd
km/h
Gust
km/h
Spd
kts
Gust
kts
20/11:30pm 14.9 13.8 13.1 89 1.0 E 11 13 6 7 1025.9 1025.9 0.0
20/11:00pm 14.6 13.7 12.5 87 1.1 E 9 11 5 6 1026.0 1026.0 0.0
20/10:30pm 14.9 14.1 12.8 87 1.2 ENE 9 13 5 7 1025.9 1025.9 0.0
20/10:00pm 15.5 15.2 13.3 87 1.2 E 7 9 4 5 1025.9 1025.9 0.0
20/09:30pm 15.5 15.0 13.7 89 1.0 ENE 9 11 5 6 1025.7 1025.7 0.0
20/09:00pm 16.1 15.9 13.6 85 1.4 E 7 9 4 5 1025.6 1025.6 0.0
20/08:30pm 16.2 15.8 14.0 87 1.2 NE 9 11 5 6 1025.4 1025.4 0.0
20/08:00pm 17.6 16.6 14.5 82 1.8 NE 13 17 7 9 1025.2 1025.2 0.0
20/07:30pm 18.4 17.0 14.5 78 2.3 NE 15 17 8 9 1025.1 1025.1 0.0
20/07:00pm 18.8 17.8 14.5 76 2.5 NNE 13 17 7 9 1025.0 1025.0 0.0
20/06:30pm 19.4 18.0 14.4 73 2.9 NE 15 17 8 9 1024.7 1024.7 0.0
20/06:00pm 19.2 17.4 14.5 74 2.7 NNE 17 19 9 10 1024.8 1024.8 0.0
20/05:30pm 19.7 18.3 14.5 72 3.0 NE 15 20 8 11 1024.9 1024.9 0.0
20/05:00pm 19.6 18.0 15.0 75 2.7 NNE 17 20 9 11 1025.0 1025.0 0.0
20/04:30pm 20.0 17.9 15.2 74 2.8 NNE 20 24 11 13 1024.9 1024.9 0.0
20/04:00pm 19.7 17.6 15.1 75 2.7 NNE 20 28 11 15 1025.1 1025.1 0.0
20/03:30pm 20.5 18.7 15.9 75 2.7 NNE 20 26 11 14 1025.4 1025.4 0.0
20/03:00pm 20.0 17.4 15.0 73 2.9 NNE 22 28 12 15 1025.5 1025.5 0.0
20/02:30pm 20.1 18.0 15.1 73 2.9 NNE 20 26 11 14 1025.8 1025.8 0.0
20/02:00pm 19.4 17.4 15.5 78 2.3 NNE 20 24 11 13 1025.9 1025.9 0.0
20/01:30pm 20.2 18.1 16.2 78 2.4 NNE 22 28 12 15 1026.0 1026.0 0.0
20/01:00pm 20.0 16.8 15.4 75 2.7 NNE 26 32 14 17 1026.0 1026.0 0.0
20/12:30pm 20.2 16.8 15.8 76 2.6 NNE 28 33 15 18 1026.2 1026.2 0.0
20/12:00pm 20.2 17.3 15.2 73 2.9 NNE 24 32 13 17 1026.4 1026.4 0.0
20/11:30am 20.0 17.2 15.4 75 2.7 NNE 24 30 13 16 1026.5 1026.5 0.0
20/11:00am 19.9 17.2 15.7 77 2.5 NNE 24 32 13 17 1026.8 1026.8 0.0
20/10:30am 19.7 17.3 15.4 76 2.5 NNE 22 28 12 15 1026.9 1026.9 0.0
20/10:00am 19.5 16.8 14.7 74 2.8 NNE 22 28 12 15 1026.9 1026.9 0.0
20/09:30am 19.7 17.6 14.7 73 2.9 NNE 19 26 10 14 1026.9 1026.9 0.0
20/09:00am 19.9 18.6 13.6 67 3.6 ENE 13 19 7 10 1026.9 1026.9 0.0
20/08:30am 19.5 18.5 14.5 73 2.9 E 13 20 7 11 1026.8 1026.8 0.0
20/08:00am 18.0 16.7 14.7 81 1.9 SSE 15 20 8 11 1026.6 1026.6 0.0
20/07:30am 15.8 14.5 13.6 87 1.2 SSE 13 17 7 9 1026.6 1026.6 0.0
20/07:00am 14.5 13.0 13.2 92 0.7 S 13 17 7 9 1026.4 1026.4 0.0
20/06:30am 13.7 12.1 12.9 95 0.4 SSE 13 17 7 9 1025.9 1025.9 0.0
20/06:00am 12.9 11.2 12.3 96 0.3 SE 13 15 7 8 1025.8 1025.8 0.0
20/05:30am 12.5 10.2 11.9 96 0.3 SSE 15 17 8 9 1026.0 1026.0 0.0
20/05:00am 12.7 10.8 11.9 95 0.4 SSE 13 17 7 9 1025.7 1025.7 0.0
20/04:30am 13.4 11.7 12.5 94 0.5 SSE 13 17 7 9 1025.5 1025.5 0.0
20/04:00am 13.4 11.7 12.5 94 0.5 SSE 13 15 7 8 1025.6 1025.6 0.0
20/03:55am 13.4 11.7 12.5 94 0.5 SSE 13 17 7 9 1025.5 1025.5 0.0
20/03:30am 14.0 12.1 12.9 93 0.6 SSE 15 19 8 10 1025.5 1025.5 0.0
20/03:07am 13.4 12.1 12.5 94 0.5 SSE 11 15 6 8 1025.8 1025.8 0.0
20/03:00am 13.3 12.0 12.4 94 0.5 SSE 11 15 6 8 1025.8 1025.8 0.0
20/02:30am 13.9 12.2 12.6 92 0.7 SSE 13 15 7 8 1025.7 1025.7 0.0
20/02:00am 14.1 12.9 12.7 91 0.8 SE 11 13 6 7 1025.6 1025.6 0.0
20/01:30am 14.3 12.7 12.9 91 0.8 SE 13 17 7 9 1025.6 1025.6 0.0
20/01:00am 14.0 12.8 12.7 92 0.7 SE 11 13 6 7 1025.9 1025.9 0.0
20/12:30am 15.0 13.5 13.0 88 1.1 SE 13 15 7 8 1026.1 1026.1 0.0
20/12:00am 14.9 13.5 13.3 90 0.9 SSE 13 15 7 8 1026.2 1026.2 0.0
 
Date/Time
EDT
Temp
°C
App
Temp
°C
Dew
Point
°C
Rel
Hum
%
Delta-T
°C
Wind Press
QNH
hPa
Press
MSL
hPa
Rain since
9am
mm
Dir  Spd
km/h
Gust
km/h
Spd
kts
Gust
kts
19/11:30pm 15.2 14.3 13.6 90 0.9 SSE 11 13 6 7 1026.1 1026.1 0.0
19/11:00pm 15.6 14.7 13.6 88 1.1 SE 11 13 6 7 1026.0 1026.0 0.0
19/10:30pm 15.5 14.5 13.3 87 1.2 SSE 11 13 6 7 1026.0 1026.0 0.0
19/10:00pm 16.5 16.1 14.0 85 1.4 E 9 11 5 6 1025.8 1025.8 0.0
19/09:30pm 16.4 15.3 14.2 87 1.3 E 13 15 7 8 1025.6 1025.6 0.0
19/09:00pm 16.3 15.1 14.1 87 1.2 ENE 13 17 7 9 1025.2 1025.2 0.0
19/08:30pm 16.7 15.6 14.2 85 1.4 ENE 13 17 7 9 1025.1 1025.1 0.0
19/08:00pm 18.0 16.4 15.1 83 1.7 NE 17 20 9 11 1025.1 1025.1 0.0
19/07:30pm 18.5 17.7 15.2 81 1.9 NE 13 19 7 10 1025.0 1025.0 0.0
19/07:00pm 19.0 17.0 14.9 77 2.4 NE 19 22 10 12 1024.7 1024.7 0.0
19/06:30pm 19.6 17.7 15.3 76 2.5 NE 19 22 10 12 1024.6 1024.6 0.0
19/06:00pm 19.6 17.2 15.3 76 2.5 NE 22 28 12 15 1024.1 1024.1 0.0
19/05:30pm 20.0 18.0 15.6 76 2.6 NE 20 26 11 14 1024.3 1024.3 0.0
19/05:00pm 20.1 18.0 15.1 73 2.9 NE 20 28 11 15 1024.3 1024.3 0.0
19/04:30pm 19.8 17.8 15.4 76 2.6 NNE 20 24 11 13 1024.4 1024.4 0.0
19/04:00pm 20.9 19.4 16.7 77 2.5 NNE 20 26 11 14 1024.4 1024.4 0.0
19/03:30pm 20.5 18.7 15.5 73 3.0 NNE 19 24 10 13 1024.7 1024.7 0.0
19/03:00pm 21.0 18.9 15.3 70 3.4 NNE 20 28 11 15 1024.9 1024.9 0.0
19/02:30pm 21.3 18.7 15.8 71 3.3 NE 24 30 13 16 1024.8 1024.8 0.0
19/02:00pm 21.0 18.1 16.2 74 2.9 NE 26 33 14 18 1025.0 1025.0 0.0
19/01:30pm 21.2 18.3 16.0 72 3.1 NE 26 33 14 18 1025.3 1025.3 0.0
19/01:00pm 20.8 18.4 16.4 76 2.6 NNE 24 30 13 16 1025.4 1025.4 0.0
19/12:30pm 20.2 17.4 15.4 74 2.8 NE 24 30 13 16 1025.5 1025.5 0.0
19/12:00pm 20.8 18.2 16.0 74 2.9 NNE 24 30 13 16 1025.7 1025.7 0.0
19/11:30am 20.4 18.0 16.4 78 2.4 NNE 24 32 13 17 1025.7 1025.7 0.0
19/11:00am 20.9 18.7 15.9 73 3.0 NNE 22 30 12 16 1025.4 1025.4 0.0
19/10:30am 20.2 18.0 15.0 72 3.1 NNE 20 24 11 13 1025.4 1025.4 0.0
19/10:00am 20.5 18.4 14.8 70 3.3 NE 19 26 10 14 1025.3 1025.3 0.0
19/09:30am 20.8 19.1 14.7 68 3.6 NE 17 28 9 15 1025.2 1025.2 0.0
19/09:00am 19.8 19.5 14.4 71 3.1 ENE 9 17 5 9 1025.1 1025.1 0.0
19/08:30am 19.5 18.3 14.1 71 3.1 SE 13 20 7 11 1024.8 1024.8 0.0
19/08:00am 18.2 16.1 14.7 80 2.0 SSE 19 22 10 12 1024.8 1024.8 0.0
19/07:30am 17.3 16.2 14.2 82 1.8 SSE 13 17 7 9 1024.7 1024.7 0.0
19/07:12am 16.6 14.6 13.9 84 1.5 SSE 17 19 9 10 1024.7 1024.7 0.0
19/07:00am 16.3 14.7 13.8 85 1.4 SSE 15 17 8 9 1024.8 1024.8 0.0
19/06:30am 15.1 13.3 13.3 89 1.0 SSE 15 19 8 10 1024.4 1024.4 0.0
19/06:00am 15.1 12.9 13.3 89 1.0 SSE 17 22 9 12 1024.1 1024.1 0.0
19/05:30am 15.4 13.2 13.4 88 1.1 SSE 17 24 9 13 1023.5 1023.5 0.0
19/05:24am 15.0 13.2 13.4 90 0.9 SSE 15 20 8 11 1023.6 1023.6 0.0
19/05:00am 15.0 12.4 13.2 89 1.0 SSE 19 22 10 12 1023.5 1023.5 0.0
19/04:30am 14.4 11.5 13.0 91 0.8 SSE 20 24 11 13 1023.5 1023.5 0.0
19/04:00am 14.0 12.4 12.7 92 0.7 SSE 13 19 7 10 1023.7 1023.7 0.0
19/03:38am 14.0 11.6 12.7 92 0.7 SSE 17 19 9 10 1023.7 1023.7 0.0
19/03:30am 13.9 11.9 12.6 92 0.7 SSE 15 17 8 9 1023.7 1023.7 0.0
19/03:00am 13.9 11.9 12.6 92 0.7 SSE 15 19 8 10 1023.7 1023.7 0.0
19/02:55am 13.9 11.5 12.6 92 0.7 SSE 17 19 9 10 1023.7 1023.7 0.0
19/02:30am 13.8 11.4 12.7 93 0.6 SSE 17 19 9 10 1023.8 1023.8 0.0
19/02:19am 13.7 12.0 12.6 93 0.6 SSE 13 15 7 8 1023.9 1023.9 0.0
19/02:00am 13.7 12.0 12.3 91 0.8 SSE 13 15 7 8 1023.9 1023.9 0.0
19/01:30am 13.8 12.4 12.2 90 0.9 SSE 11 15 6 8 1023.8 1023.8 0.0
19/01:18am 14.4 13.2 12.8 90 0.9 SE 11 13 6 7 1023.9 1023.9 0.0
19/01:00am 14.4 13.2 12.8 90 0.9 SE 11 13 6 7 1023.8 1023.8 0.0
19/12:47am 14.7 13.5 12.9 89 1.0 SE 11 17 6 9 1023.9 1023.9 0.0
19/12:30am 14.7 13.1 12.9 89 1.0 SSE 13 15 7 8 1024.2 1024.2 0.0
19/12:00am 14.3 13.0 12.5 89 1.0 SE 11 13 6 7 1024.1 1024.1 0.0
 
Date/Time
EDT
Temp
°C
App
Temp
°C
Dew
Point
°C
Rel
Hum
%
Delta-T
°C
Wind Press
QNH
hPa
Press
MSL
hPa
Rain since
9am
mm
Dir  Spd
km/h
Gust
km/h
Spd
kts
Gust
kts
18/11:30pm 14.3 13.3 12.3 88 1.1 SSE 9 13 5 7 1024.0 1024.0 0.0
18/11:00pm 15.1 13.8 12.6 85 1.4 ESE 11 13 6 7 1023.8 1023.8 0.0
18/10:30pm 15.7 15.0 13.2 85 1.4 E 9 13 5 7 1023.9 1023.9 0.0
18/10:00pm 16.1 14.6 13.2 83 1.6 ENE 13 15 7 8 1023.8 1023.8 0.0
18/09:30pm 16.4 14.8 13.9 85 1.4 ENE 15 17 8 9 1023.6 1023.6 0.0
18/09:00pm 16.4 15.2 13.9 85 1.4 ENE 13 17 7 9 1023.4 1023.4 0.0
18/08:30pm 17.6 14.9 14.7 83 1.7 NE 22 28 12 15 1023.1 1023.1 0.0
18/08:00pm 17.9 15.3 14.8 82 1.8 NE 22 28 12 15 1022.8 1022.8 0.0
18/07:30pm 18.5 15.2 15.0 80 2.0 NE 26 33 14 18 1022.5 1022.5 0.0
18/07:00pm 19.1 15.4 15.0 77 2.4 NE 28 33 15 18 1022.1 1022.1 0.0
18/06:30pm 19.2 15.5 15.1 77 2.4 NE 28 35 15 19 1021.8 1021.8 0.0
18/06:00pm 19.8 15.9 15.4 76 2.6 NE 30 37 16 20 1021.5 1021.4 0.0
18/05:30pm 20.0 16.5 15.6 76 2.6 NE 28 37 15 20 1021.7 1021.7 0.0
18/05:00pm 19.3 15.8 15.4 78 2.3 NE 28 33 15 18 1021.7 1021.7 0.0
18/04:30pm 20.0 17.1 16.0 78 2.4 NE 26 32 14 17 1022.0 1022.0 0.0
18/04:00pm 20.0 16.8 15.2 74 2.8 NE 26 32 14 17 1022.1 1022.1 0.0
18/03:30pm 20.0 16.8 15.4 75 2.7 NE 26 35 14 19 1022.1 1022.1 0.0
18/03:00pm 20.8 16.6 15.8 73 3.0 NE 32 39 17 21 1022.1 1022.1 0.0
18/02:30pm 21.3 17.0 16.0 72 3.2 NE 33 43 18 23 1022.1 1022.1 0.0
18/02:00pm 21.2 16.7 15.5 70 3.4 NE 33 43 18 23 1022.2 1022.2 0.0
18/01:30pm 20.9 16.2 15.9 73 3.0 NE 35 44 19 24 1022.3 1022.3 0.0
18/01:00pm 20.6 16.2 15.2 71 3.2 NE 32 39 17 21 1022.3 1022.3 0.0
18/12:30pm 20.9 16.7 15.7 72 3.1 NE 32 41 17 22 1022.4 1022.4 0.0
18/12:00pm 20.3 16.4 15.5 74 2.8 NE 30 39 16 21 1022.5 1022.5 0.0
18/11:30am 20.6 16.8 15.8 74 2.9 NE 30 39 16 21 1022.5 1022.5 0.0
18/11:00am 20.3 16.0 15.3 73 2.9 ENE 32 43 17 23 1022.5 1022.5 0.0
18/10:30am 20.0 16.5 15.4 75 2.7 ENE 28 37 15 20 1022.7 1022.7 0.0
18/10:00am 19.4 16.1 14.9 75 2.6 ENE 26 33 14 18 1022.7 1022.7 0.0
18/09:30am 19.2 15.9 15.1 77 2.4 ENE 26 32 14 17 1022.7 1022.7 0.0
18/09:00am 19.1 16.5 14.8 76 2.5 ENE 22 32 12 17 1022.5 1022.5 0.0
18/08:30am 19.1 16.5 14.8 76 2.5 ENE 22 32 12 17 1022.4 1022.4 0.0
18/08:00am 19.1 15.7 14.8 76 2.5 ENE 26 35 14 19 1022.2 1022.2 0.0
18/07:30am 18.7 16.1 14.8 78 2.3 E 22 32 12 17 1021.9 1021.9 0.0
18/07:00am 18.6 15.6 14.7 78 2.3 E 24 32 13 17 1021.6 1021.6 0.0
18/06:30am 18.4 16.3 14.7 79 2.1 E 19 28 10 15 1021.5 1021.4 0.0
18/06:00am 18.3 16.2 14.6 79 2.1 E 19 28 10 15 1021.2 1021.1 0.0

Other Formats:

Comma delimited format used in spreadsheet applications
http://www.bom.gov.au/fwo/IDT60801/IDT60801.95960.axf

JavaScript Object Notation format (JSON) in row-major order
http://www.bom.gov.au/fwo/IDT60801/IDT60801.95960.json